PWSweather.com
Personal Weather Stations
Station Observations
DW6359
Southwest Cambria, Cambria, WI 53923

Southwest CambriaCambria, WI 53923

Lat: 43.541194, Lon: -89.11275

Elevation: 945

Station Type: Davis Vantage Pro2

http://home.centurytel.net/weathercambria/wxcambria.html

High Low Average
Temperature 11.1°F-11.6°C -12.0°F-24.4°C 2.0°F-16.7°C
Dew Point 6.4°F-14.2°C -16.2°F-26.8°C -3.0°F-19.4°C
Winds 11.0 mph 17.7 kmh Calm Calm 3.0 mph SW4.8 kmh SW
Wind Gusts 12.0 mph19.3 kmh -- 1.0 mph1.6 kmh
Humidity 87% 66% 79%
Pressure 30.39 in1029.1 mb 30.27 in1025.1 mb -
Precipitation 0.00 in0.0 mm - -
Hour Temp Dew Point Humidity Winds Wind Gusts Pressure Precip Precip Rate Daily Precip Total
12:00 AM -4.4°F-20.2°C -10.8°F-23.8°C 73% 2.0 mph WSW3.2 kmh WSW -- 30.34 in1027.4 mb 0.00 in0.0 mm 0.00 in0.0 mm 0.00 in0.0 mm
12:05 AM -4.6°F-20.3°C -11.0°F-23.9°C 73% 3.0 mph WSW4.8 kmh WSW -- 30.34 in1027.4 mb 0.00 in0.0 mm 0.00 in0.0 mm 0.00 in0.0 mm
12:10 AM -4.6°F-20.3°C -11.0°F-23.9°C 73% 2.0 mph WSW3.2 kmh WSW -- 30.34 in1027.4 mb 0.00 in0.0 mm 0.00 in0.0 mm 0.00 in0.0 mm
12:15 AM -4.6°F-20.3°C -11.0°F-23.9°C 73% 3.0 mph WSW4.8 kmh WSW -- 30.34 in1027.4 mb 0.00 in0.0 mm 0.00 in0.0 mm 0.00 in0.0 mm
12:20 AM -4.7°F-20.4°C -11.1°F-23.9°C 73% 4.0 mph W6.4 kmh W -- 30.34 in1027.4 mb 0.00 in0.0 mm 0.00 in0.0 mm 0.00 in0.0 mm
12:25 AM -4.5°F-20.3°C -10.6°F-23.7°C 74% 5.0 mph W8.0 kmh W -- 30.34 in1027.4 mb 0.00 in0.0 mm 0.00 in0.0 mm 0.00 in0.0 mm
12:30 AM -4.3°F-20.2°C -10.4°F-23.6°C 74% 5.0 mph WSW8.0 kmh WSW 8.0 mph12.9 kmh 30.35 in1027.8 mb 0.00 in0.0 mm 0.00 in0.0 mm 0.00 in0.0 mm
12:35 AM -4.4°F-20.2°C -10.8°F-23.8°C 73% 4.0 mph W6.4 kmh W 8.0 mph12.9 kmh 30.35 in1027.8 mb 0.00 in0.0 mm 0.00 in0.0 mm 0.00 in0.0 mm
12:40 AM -4.5°F-20.3°C -10.9°F-23.8°C 73% 4.0 mph W6.4 kmh W -- 30.35 in1027.8 mb 0.00 in0.0 mm 0.00 in0.0 mm 0.00 in0.0 mm
12:45 AM -4.5°F-20.3°C -10.6°F-23.7°C 74% 4.0 mph W6.4 kmh W -- 30.35 in1027.8 mb 0.00 in0.0 mm 0.00 in0.0 mm 0.00 in0.0 mm
12:50 AM -4.4°F-20.2°C -10.5°F-23.6°C 74% 3.0 mph W4.8 kmh W -- 30.35 in1027.8 mb 0.00 in0.0 mm 0.00 in0.0 mm 0.00 in0.0 mm
12:55 AM -4.5°F-20.3°C -10.6°F-23.7°C 74% 3.0 mph WSW4.8 kmh WSW -- 30.35 in1027.8 mb 0.00 in0.0 mm 0.00 in0.0 mm 0.00 in0.0 mm
01:00 AM -4.5°F-20.3°C -10.6°F-23.7°C 74% 3.0 mph WSW4.8 kmh WSW -- 30.36 in1028.1 mb 0.00 in0.0 mm 0.00 in0.0 mm 0.00 in0.0 mm
01:05 AM -4.5°F-20.3°C -10.6°F-23.7°C 74% 5.0 mph WSW8.0 kmh WSW -- 30.36 in1028.1 mb 0.00 in0.0 mm 0.00 in0.0 mm 0.00 in0.0 mm
01:10 AM -4.5°F-20.3°C -10.6°F-23.7°C 74% 2.0 mph WSW3.2 kmh WSW -- 30.35 in1027.8 mb 0.00 in0.0 mm 0.00 in0.0 mm 0.00 in0.0 mm
01:15 AM -4.6°F-20.3°C -10.7°F-23.7°C 74% 4.0 mph W6.4 kmh W -- 30.36 in1028.1 mb 0.00 in0.0 mm 0.00 in0.0 mm 0.00 in0.0 mm
01:20 AM -4.7°F-20.4°C -10.8°F-23.8°C 74% 4.0 mph W6.4 kmh W 6.0 mph9.7 kmh 30.35 in1027.8 mb 0.00 in0.0 mm 0.00 in0.0 mm 0.00 in0.0 mm
01:25 AM -4.8°F-20.4°C -10.9°F-23.8°C 74% 3.0 mph WSW4.8 kmh WSW 6.0 mph9.7 kmh 30.35 in1027.8 mb 0.00 in0.0 mm 0.00 in0.0 mm 0.00 in0.0 mm
01:30 AM -4.9°F-20.5°C -11.0°F-23.9°C 74% 2.0 mph WSW3.2 kmh WSW -- 30.35 in1027.8 mb 0.00 in0.0 mm 0.00 in0.0 mm 0.00 in0.0 mm
01:35 AM -5.5°F-20.8°C -11.6°F-24.2°C 74% 3.0 mph WSW4.8 kmh WSW -- 30.35 in1027.8 mb 0.00 in0.0 mm 0.00 in0.0 mm 0.00 in0.0 mm
01:40 AM -5.6°F-20.9°C -11.7°F-24.3°C 74% 2.0 mph SW3.2 kmh SW -- 30.35 in1027.8 mb 0.00 in0.0 mm 0.00 in0.0 mm 0.00 in0.0 mm
01:45 AM -5.4°F-20.8°C -11.5°F-24.2°C 74% 8.0 mph W12.9 kmh W -- 30.35 in1027.8 mb 0.00 in0.0 mm 0.00 in0.0 mm 0.00 in0.0 mm
01:50 AM -5.4°F-20.8°C -11.5°F-24.2°C 74% 4.0 mph W6.4 kmh W -- 30.34 in1027.4 mb 0.00 in0.0 mm 0.00 in0.0 mm 0.00 in0.0 mm
01:55 AM -5.5°F-20.8°C -11.6°F-24.2°C 74% 5.0 mph WNW8.0 kmh WNW -- 30.34 in1027.4 mb 0.00 in0.0 mm 0.00 in0.0 mm 0.00 in0.0 mm
02:00 AM -5.8°F-21.0°C -11.9°F-24.4°C 74% 4.0 mph WNW6.4 kmh WNW -- 30.34 in1027.4 mb 0.00 in0.0 mm 0.00 in0.0 mm 0.00 in0.0 mm
02:05 AM -5.7°F-20.9°C -11.8°F-24.3°C 74% 8.0 mph WNW12.9 kmh WNW -- 30.34 in1027.4 mb 0.00 in0.0 mm 0.00 in0.0 mm 0.00 in0.0 mm
02:10 AM -5.5°F-20.8°C -11.3°F-24.1°C 75% 5.0 mph W8.0 kmh W 12.0 mph19.3 kmh 30.34 in1027.4 mb 0.00 in0.0 mm 0.00 in0.0 mm 0.00 in0.0 mm
02:15 AM -5.3°F-20.7°C -11.4°F-24.1°C 74% 11.0 mph WNW17.7 kmh WNW 12.0 mph19.3 kmh 30.34 in1027.4 mb 0.00 in0.0 mm 0.00 in0.0 mm 0.00 in0.0 mm
02:20 AM -5.3°F-20.7°C -11.4°F-24.1°C 74% 6.0 mph WSW9.7 kmh WSW -- 30.34 in1027.4 mb 0.00 in0.0 mm 0.00 in0.0 mm 0.00 in0.0 mm
02:25 AM -5.6°F-20.9°C -11.7°F-24.3°C 74% 5.0 mph WNW8.0 kmh WNW -- 30.35 in1027.8 mb 0.00 in0.0 mm 0.00 in0.0 mm 0.00 in0.0 mm
02:30 AM -6.0°F-21.1°C -12.1°F-24.5°C 74% Calm Calm -- 30.35 in1027.8 mb 0.00 in0.0 mm 0.00 in0.0 mm 0.00 in0.0 mm
02:35 AM -6.5°F-21.4°C -12.3°F-24.6°C 75% 3.0 mph SW4.8 kmh SW -- 30.35 in1027.8 mb 0.00 in0.0 mm 0.00 in0.0 mm 0.00 in0.0 mm
02:40 AM -6.8°F-21.6°C -12.6°F-24.8°C 75% 2.0 mph SW3.2 kmh SW -- 30.34 in1027.4 mb 0.00 in0.0 mm 0.00 in0.0 mm 0.00 in0.0 mm
02:45 AM -7.0°F-21.7°C -12.5°F-24.7°C 76% Calm Calm -- 30.34 in1027.4 mb 0.00 in0.0 mm 0.00 in0.0 mm 0.00 in0.0 mm
02:50 AM -7.3°F-21.8°C -12.8°F-24.9°C 76% 1.0 mph WSW1.6 kmh WSW -- 30.34 in1027.4 mb 0.00 in0.0 mm 0.00 in0.0 mm 0.00 in0.0 mm
02:55 AM -7.5°F-21.9°C -13.0°F-25.0°C 76% 3.0 mph SW4.8 kmh SW -- 30.35 in1027.8 mb 0.00 in0.0 mm 0.00 in0.0 mm 0.00 in0.0 mm
03:00 AM -7.7°F-22.1°C -13.0°F-25.0°C 77% 4.0 mph SW6.4 kmh SW 4.0 mph6.4 kmh 30.35 in1027.8 mb 0.00 in0.0 mm 0.00 in0.0 mm 0.00 in0.0 mm
03:05 AM -7.9°F-22.2°C -13.2°F-25.1°C 77% 3.0 mph SW4.8 kmh SW 4.0 mph6.4 kmh 30.35 in1027.8 mb 0.00 in0.0 mm 0.00 in0.0 mm 0.00 in0.0 mm
03:10 AM -8.1°F-22.3°C -13.1°F-25.1°C 78% 4.0 mph WSW6.4 kmh WSW -- 30.35 in1027.8 mb 0.00 in0.0 mm 0.00 in0.0 mm 0.00 in0.0 mm
03:15 AM -8.0°F-22.2°C -13.0°F-25.0°C 78% 4.0 mph SW6.4 kmh SW -- 30.35 in1027.8 mb 0.00 in0.0 mm 0.00 in0.0 mm 0.00 in0.0 mm
03:20 AM -8.0°F-22.2°C -13.0°F-25.0°C 78% 4.0 mph SW6.4 kmh SW -- 30.35 in1027.8 mb 0.00 in0.0 mm 0.00 in0.0 mm 0.00 in0.0 mm
03:25 AM -7.9°F-22.2°C -12.9°F-24.9°C 78% 3.0 mph SW4.8 kmh SW -- 30.34 in1027.4 mb 0.00 in0.0 mm 0.00 in0.0 mm 0.00 in0.0 mm
03:30 AM -7.7°F-22.1°C -12.7°F-24.8°C 78% 3.0 mph SW4.8 kmh SW -- 30.34 in1027.4 mb 0.00 in0.0 mm 0.00 in0.0 mm 0.00 in0.0 mm
03:35 AM -7.8°F-22.1°C -12.8°F-24.9°C 78% 4.0 mph WSW6.4 kmh WSW -- 30.34 in1027.4 mb 0.00 in0.0 mm 0.00 in0.0 mm 0.00 in0.0 mm
03:40 AM -6.8°F-21.6°C -12.1°F-24.5°C 77% Calm Calm -- 30.34 in1027.4 mb 0.00 in0.0 mm 0.00 in0.0 mm 0.00 in0.0 mm
03:45 AM -6.9°F-21.6°C -12.2°F-24.6°C 77% 1.0 mph WSW1.6 kmh WSW -- 30.34 in1027.4 mb 0.00 in0.0 mm 0.00 in0.0 mm 0.00 in0.0 mm
03:50 AM -7.1°F-21.7°C -12.4°F-24.7°C 77% 2.0 mph WSW3.2 kmh WSW 3.0 mph4.8 kmh 30.34 in1027.4 mb 0.00 in0.0 mm 0.00 in0.0 mm 0.00 in0.0 mm
03:55 AM -7.5°F-21.9°C -12.8°F-24.9°C 77% 1.0 mph WSW1.6 kmh WSW 3.0 mph4.8 kmh 30.33 in1027.1 mb 0.00 in0.0 mm 0.00 in0.0 mm 0.00 in0.0 mm
04:00 AM -7.8°F-22.1°C -13.1°F-25.1°C 77% 2.0 mph WSW3.2 kmh WSW -- 30.34 in1027.4 mb 0.00 in0.0 mm 0.00 in0.0 mm 0.00 in0.0 mm
04:05 AM -8.1°F-22.3°C -13.3°F-25.2°C 77% 1.0 mph WSW1.6 kmh WSW -- 30.33 in1027.1 mb 0.00 in0.0 mm 0.00 in0.0 mm 0.00 in0.0 mm
04:10 AM -8.1°F-22.3°C -13.3°F-25.2°C 77% 2.0 mph WSW3.2 kmh WSW -- 30.32 in1026.8 mb 0.00 in0.0 mm 0.00 in0.0 mm 0.00 in0.0 mm
04:15 AM -8.1°F-22.3°C -13.1°F-25.1°C 78% Calm Calm -- 30.32 in1026.8 mb 0.00 in0.0 mm 0.00 in0.0 mm 0.00 in0.0 mm
04:20 AM -8.0°F-22.2°C -13.0°F-25.0°C 78% Calm Calm -- 30.32 in1026.8 mb 0.00 in0.0 mm 0.00 in0.0 mm 0.00 in0.0 mm
04:25 AM -8.0°F-22.2°C -12.7°F-24.8°C 79% Calm Calm -- 30.32 in1026.8 mb 0.00 in0.0 mm 0.00 in0.0 mm 0.00 in0.0 mm
04:30 AM -8.4°F-22.4°C -13.4°F-25.2°C 78% Calm Calm -- 30.32 in1026.8 mb 0.00 in0.0 mm 0.00 in0.0 mm 0.00 in0.0 mm
04:35 AM -8.4°F-22.4°C -13.4°F-25.2°C 78% Calm Calm -- 30.32 in1026.8 mb 0.00 in0.0 mm 0.00 in0.0 mm 0.00 in0.0 mm
04:40 AM -8.4°F-22.4°C -13.1°F-25.1°C 79% Calm Calm -- 30.32 in1026.8 mb 0.00 in0.0 mm 0.00 in0.0 mm 0.00 in0.0 mm
04:45 AM -8.5°F-22.5°C -13.2°F-25.1°C 79% Calm Calm -- 30.32 in1026.8 mb 0.00 in0.0 mm 0.00 in0.0 mm 0.00 in0.0 mm
04:50 AM -8.7°F-22.6°C -13.4°F-25.2°C 79% Calm Calm -- 30.32 in1026.8 mb 0.00 in0.0 mm 0.00 in0.0 mm 0.00 in0.0 mm
04:55 AM -8.8°F-22.7°C -13.5°F-25.3°C 79% Calm Calm -- 30.32 in1026.8 mb 0.00 in0.0 mm 0.00 in0.0 mm 0.00 in0.0 mm
05:00 AM -8.9°F-22.7°C -13.6°F-25.3°C 79% Calm Calm -- 30.32 in1026.8 mb 0.00 in0.0 mm 0.00 in0.0 mm 0.00 in0.0 mm
05:05 AM -8.9°F-22.7°C -13.6°F-25.3°C 79% Calm Calm -- 30.32 in1026.8 mb 0.00 in0.0 mm 0.00 in0.0 mm 0.00 in0.0 mm
05:10 AM -9.3°F-22.9°C -14.0°F-25.6°C 79% Calm Calm -- 30.34 in1027.4 mb 0.00 in0.0 mm 0.00 in0.0 mm 0.00 in0.0 mm
05:15 AM -9.8°F-23.2°C -14.5°F-25.8°C 79% Calm Calm -- 30.34 in1027.4 mb 0.00 in0.0 mm 0.00 in0.0 mm 0.00 in0.0 mm
05:20 AM -10.1°F-23.4°C -14.8°F-26.0°C 79% Calm Calm -- 30.34 in1027.4 mb 0.00 in0.0 mm 0.00 in0.0 mm 0.00 in0.0 mm
05:25 AM -10.3°F-23.5°C -15.0°F-26.1°C 79% 2.0 mph WSW3.2 kmh WSW -- 30.35 in1027.8 mb 0.00 in0.0 mm 0.00 in0.0 mm 0.00 in0.0 mm
05:30 AM -10.6°F-23.7°C -15.0°F-26.1°C 80% 2.0 mph WSW3.2 kmh WSW 3.0 mph4.8 kmh 30.35 in1027.8 mb 0.00 in0.0 mm 0.00 in0.0 mm 0.00 in0.0 mm
05:35 AM -10.9°F-23.8°C -15.3°F-26.3°C 80% 1.0 mph WSW1.6 kmh WSW 3.0 mph4.8 kmh 30.34 in1027.4 mb 0.00 in0.0 mm 0.00 in0.0 mm 0.00 in0.0 mm
05:40 AM -11.1°F-23.9°C -15.5°F-26.4°C 80% 1.0 mph WSW1.6 kmh WSW -- 30.34 in1027.4 mb 0.00 in0.0 mm 0.00 in0.0 mm 0.00 in0.0 mm
05:45 AM -11.0°F-23.9°C -15.4°F-26.3°C 80% Calm Calm -- 30.34 in1027.4 mb 0.00 in0.0 mm 0.00 in0.0 mm 0.00 in0.0 mm
05:50 AM -11.2°F-24.0°C -15.6°F-26.4°C 80% Calm Calm -- 30.35 in1027.8 mb 0.00 in0.0 mm 0.00 in0.0 mm 0.00 in0.0 mm
05:55 AM -11.1°F-23.9°C -15.5°F-26.4°C 80% Calm Calm -- 30.35 in1027.8 mb 0.00 in0.0 mm 0.00 in0.0 mm 0.00 in0.0 mm
06:00 AM -11.1°F-23.9°C -15.5°F-26.4°C 80% Calm Calm -- 30.35 in1027.8 mb 0.00 in0.0 mm 0.00 in0.0 mm 0.00 in0.0 mm
06:05 AM -11.2°F-24.0°C -15.4°F-26.3°C 81% 1.0 mph WSW1.6 kmh WSW -- 30.36 in1028.1 mb 0.00 in0.0 mm 0.00 in0.0 mm 0.00 in0.0 mm
06:10 AM -11.6°F-24.2°C -16.0°F-26.7°C 80% 1.0 mph WSW1.6 kmh WSW -- 30.36 in1028.1 mb 0.00 in0.0 mm 0.00 in0.0 mm 0.00 in0.0 mm
06:15 AM -11.7°F-24.3°C -15.9°F-26.6°C 81% 1.0 mph WSW1.6 kmh WSW -- 30.36 in1028.1 mb 0.00 in0.0 mm 0.00 in0.0 mm 0.00 in0.0 mm
06:20 AM -11.6°F-24.2°C -15.8°F-26.6°C 81% 1.0 mph WSW1.6 kmh WSW 3.0 mph4.8 kmh 30.36 in1028.1 mb 0.00 in0.0 mm 0.00 in0.0 mm 0.00 in0.0 mm
06:25 AM -11.7°F-24.3°C -15.9°F-26.6°C 81% 1.0 mph WSW1.6 kmh WSW 3.0 mph4.8 kmh 30.36 in1028.1 mb 0.00 in0.0 mm 0.00 in0.0 mm 0.00 in0.0 mm
06:30 AM -11.7°F-24.3°C -15.9°F-26.6°C 81% Calm Calm -- 30.36 in1028.1 mb 0.00 in0.0 mm 0.00 in0.0 mm 0.00 in0.0 mm
06:35 AM -11.7°F-24.3°C -15.9°F-26.6°C 81% Calm Calm -- 30.36 in1028.1 mb 0.00 in0.0 mm 0.00 in0.0 mm 0.00 in0.0 mm
06:40 AM -11.9°F-24.4°C -16.1°F-26.7°C 81% Calm Calm -- 30.36 in1028.1 mb 0.00 in0.0 mm 0.00 in0.0 mm 0.00 in0.0 mm
06:45 AM -12.0°F-24.4°C -16.2°F-26.8°C 81% Calm Calm -- 30.35 in1027.8 mb 0.00 in0.0 mm 0.00 in0.0 mm 0.00 in0.0 mm
06:50 AM -11.7°F-24.3°C -15.6°F-26.4°C 82% Calm Calm -- 30.35 in1027.8 mb 0.00 in0.0 mm 0.00 in0.0 mm 0.00 in0.0 mm
06:55 AM -11.5°F-24.2°C -15.4°F-26.3°C 82% Calm Calm -- 30.35 in1027.8 mb 0.00 in0.0 mm 0.00 in0.0 mm 0.00 in0.0 mm
07:00 AM -11.5°F-24.2°C -15.4°F-26.3°C 82% Calm Calm -- 30.36 in1028.1 mb 0.00 in0.0 mm 0.00 in0.0 mm 0.00 in0.0 mm
07:05 AM -11.3°F-24.1°C -15.2°F-26.2°C 82% Calm Calm -- 30.36 in1028.1 mb 0.00 in0.0 mm 0.00 in0.0 mm 0.00 in0.0 mm
07:10 AM -11.1°F-23.9°C -15.0°F-26.1°C 82% Calm Calm 1.0 mph1.6 kmh 30.36 in1028.1 mb 0.00 in0.0 mm 0.00 in0.0 mm 0.00 in0.0 mm
07:15 AM -10.9°F-23.8°C -14.8°F-26.0°C 82% Calm Calm 1.0 mph1.6 kmh 30.36 in1028.1 mb 0.00 in0.0 mm 0.00 in0.0 mm 0.00 in0.0 mm
07:20 AM -10.9°F-23.8°C -14.8°F-26.0°C 82% Calm Calm -- 30.37 in1028.4 mb 0.00 in0.0 mm 0.00 in0.0 mm 0.00 in0.0 mm
07:25 AM -11.3°F-24.1°C -15.5°F-26.4°C 81% 1.0 mph WSW1.6 kmh WSW -- 30.37 in1028.4 mb 0.00 in0.0 mm 0.00 in0.0 mm 0.00 in0.0 mm
07:30 AM -11.4°F-24.1°C -15.6°F-26.4°C 81% Calm Calm -- 30.38 in1028.8 mb 0.00 in0.0 mm 0.00 in0.0 mm 0.00 in0.0 mm
07:35 AM -11.3°F-24.1°C -15.2°F-26.2°C 82% 1.0 mph WSW1.6 kmh WSW -- 30.38 in1028.8 mb 0.00 in0.0 mm 0.00 in0.0 mm 0.00 in0.0 mm
07:40 AM -11.3°F-24.1°C -15.2°F-26.2°C 82% Calm Calm -- 30.38 in1028.8 mb 0.00 in0.0 mm 0.00 in0.0 mm 0.00 in0.0 mm
07:45 AM -11.4°F-24.1°C -15.6°F-26.4°C 81% 1.0 mph WSW1.6 kmh WSW -- 30.39 in1029.1 mb 0.00 in0.0 mm 0.00 in0.0 mm 0.00 in0.0 mm
07:50 AM -11.3°F-24.1°C -15.2°F-26.2°C 82% 1.0 mph WSW1.6 kmh WSW -- 30.38 in1028.8 mb 0.00 in0.0 mm 0.00 in0.0 mm 0.00 in0.0 mm
07:55 AM -10.9°F-23.8°C -14.8°F-26.0°C 82% Calm Calm -- 30.37 in1028.4 mb 0.00 in0.0 mm 0.00 in0.0 mm 0.00 in0.0 mm
08:00 AM -10.6°F-23.7°C -14.5°F-25.8°C 82% Calm Calm 2.0 mph3.2 kmh 30.37 in1028.4 mb 0.00 in0.0 mm 0.00 in0.0 mm 0.00 in0.0 mm
08:05 AM -10.2°F-23.4°C -14.2°F-25.7°C 82% 1.0 mph WSW1.6 kmh WSW 2.0 mph3.2 kmh 30.36 in1028.1 mb 0.00 in0.0 mm 0.00 in0.0 mm 0.00 in0.0 mm
08:10 AM -10.0°F-23.3°C -14.0°F-25.6°C 82% 1.0 mph WSW1.6 kmh WSW -- 30.36 in1028.1 mb 0.00 in0.0 mm 0.00 in0.0 mm 0.00 in0.0 mm
08:15 AM -9.5°F-23.1°C -13.2°F-25.1°C 83% 2.0 mph WSW3.2 kmh WSW -- 30.36 in1028.1 mb 0.00 in0.0 mm 0.00 in0.0 mm 0.00 in0.0 mm
08:20 AM -9.0°F-22.8°C -12.7°F-24.8°C 83% 1.0 mph WSW1.6 kmh WSW -- 30.37 in1028.4 mb 0.00 in0.0 mm 0.00 in0.0 mm 0.00 in0.0 mm
08:25 AM -8.8°F-22.7°C -12.5°F-24.7°C 83% 1.0 mph WSW1.6 kmh WSW -- 30.37 in1028.4 mb 0.00 in0.0 mm 0.00 in0.0 mm 0.00 in0.0 mm
08:30 AM -8.7°F-22.6°C -12.7°F-24.8°C 82% 1.0 mph WSW1.6 kmh WSW -- 30.37 in1028.4 mb 0.00 in0.0 mm 0.00 in0.0 mm 0.00 in0.0 mm
08:35 AM -8.6°F-22.6°C -12.6°F-24.8°C 82% Calm Calm -- 30.37 in1028.4 mb 0.00 in0.0 mm 0.00 in0.0 mm 0.00 in0.0 mm
08:40 AM -8.7°F-22.6°C -12.7°F-24.8°C 82% Calm Calm -- 30.37 in1028.4 mb 0.00 in0.0 mm 0.00 in0.0 mm 0.00 in0.0 mm
08:45 AM -8.6°F-22.6°C -12.6°F-24.8°C 82% Calm Calm -- 30.36 in1028.1 mb 0.00 in0.0 mm 0.00 in0.0 mm 0.00 in0.0 mm
08:50 AM -8.6°F-22.6°C -12.6°F-24.8°C 82% Calm Calm 1.0 mph1.6 kmh 30.37 in1028.4 mb 0.00 in0.0 mm 0.00 in0.0 mm 0.00 in0.0 mm
08:55 AM -8.5°F-22.5°C -12.5°F-24.7°C 82% 1.0 mph WSW1.6 kmh WSW 1.0 mph1.6 kmh 30.37 in1028.4 mb 0.00 in0.0 mm 0.00 in0.0 mm 0.00 in0.0 mm
09:00 AM -8.5°F-22.5°C -12.5°F-24.7°C 82% 2.0 mph WSW3.2 kmh WSW -- 30.37 in1028.4 mb 0.00 in0.0 mm 0.00 in0.0 mm 0.00 in0.0 mm
09:05 AM -8.5°F-22.5°C -12.5°F-24.7°C 82% 1.0 mph WSW1.6 kmh WSW -- 30.37 in1028.4 mb 0.00 in0.0 mm 0.00 in0.0 mm 0.00 in0.0 mm
09:10 AM -8.3°F-22.4°C -12.3°F-24.6°C 82% 1.0 mph WSW1.6 kmh WSW -- 30.37 in1028.4 mb 0.00 in0.0 mm 0.00 in0.0 mm 0.00 in0.0 mm
09:15 AM -7.7°F-22.1°C -11.7°F-24.3°C 82% 1.0 mph SW1.6 kmh SW -- 30.37 in1028.4 mb 0.00 in0.0 mm 0.00 in0.0 mm 0.00 in0.0 mm
09:20 AM -7.4°F-21.9°C -11.7°F-24.3°C 81% 1.0 mph SW1.6 kmh SW -- 30.37 in1028.4 mb 0.00 in0.0 mm 0.00 in0.0 mm 0.00 in0.0 mm
09:25 AM -7.1°F-21.7°C -11.4°F-24.1°C 81% 1.0 mph WSW1.6 kmh WSW -- 30.37 in1028.4 mb 0.00 in0.0 mm 0.00 in0.0 mm 0.00 in0.0 mm
09:30 AM -6.6°F-21.4°C -10.9°F-23.8°C 81% Calm Calm -- 30.37 in1028.4 mb 0.00 in0.0 mm 0.00 in0.0 mm 0.00 in0.0 mm
09:35 AM -6.4°F-21.3°C -10.9°F-23.8°C 80% Calm Calm -- 30.37 in1028.4 mb 0.00 in0.0 mm 0.00 in0.0 mm 0.00 in0.0 mm
09:40 AM -5.8°F-21.0°C -10.1°F-23.4°C 81% 4.0 mph SW6.4 kmh SW 5.0 mph8.0 kmh 30.37 in1028.4 mb 0.00 in0.0 mm 0.00 in0.0 mm 0.00 in0.0 mm
09:45 AM -5.1°F-20.6°C -9.4°F-23.0°C 81% 4.0 mph SW6.4 kmh SW 5.0 mph8.0 kmh 30.38 in1028.8 mb 0.00 in0.0 mm 0.00 in0.0 mm 0.00 in0.0 mm
09:50 AM -4.8°F-20.4°C -8.9°F-22.7°C 82% 2.0 mph WSW3.2 kmh WSW -- 30.37 in1028.4 mb 0.00 in0.0 mm 0.00 in0.0 mm 0.00 in0.0 mm
09:55 AM -4.2°F-20.1°C -8.3°F-22.4°C 82% 3.0 mph WSW4.8 kmh WSW -- 30.38 in1028.8 mb 0.00 in0.0 mm 0.00 in0.0 mm 0.00 in0.0 mm
10:00 AM -3.7°F-19.8°C -7.8°F-22.1°C 82% 4.0 mph WSW6.4 kmh WSW -- 30.38 in1028.8 mb 0.00 in0.0 mm 0.00 in0.0 mm 0.00 in0.0 mm
10:05 AM -3.4°F-19.7°C -7.5°F-21.9°C 82% 3.0 mph WSW4.8 kmh WSW -- 30.37 in1028.4 mb 0.00 in0.0 mm 0.00 in0.0 mm 0.00 in0.0 mm
10:10 AM -3.0°F-19.4°C -7.4°F-21.9°C 81% Calm Calm -- 30.38 in1028.8 mb 0.00 in0.0 mm 0.00 in0.0 mm 0.00 in0.0 mm
10:15 AM -2.7°F-19.3°C -7.1°F-21.7°C 81% 4.0 mph WSW6.4 kmh WSW -- 30.38 in1028.8 mb 0.00 in0.0 mm 0.00 in0.0 mm 0.00 in0.0 mm
10:20 AM -2.1°F-18.9°C -6.7°F-21.5°C 80% 2.0 mph SW3.2 kmh SW -- 30.38 in1028.8 mb 0.00 in0.0 mm 0.00 in0.0 mm 0.00 in0.0 mm
10:25 AM -1.4°F-18.6°C -6.0°F-21.1°C 80% 3.0 mph SW4.8 kmh SW -- 30.38 in1028.8 mb 0.00 in0.0 mm 0.00 in0.0 mm 0.00 in0.0 mm
10:30 AM -0.8°F-18.2°C -5.5°F-20.8°C 80% 2.0 mph SW3.2 kmh SW 5.0 mph8.0 kmh 30.38 in1028.8 mb 0.00 in0.0 mm 0.00 in0.0 mm 0.00 in0.0 mm
10:35 AM -0.4°F-18.0°C -5.3°F-20.7°C 79% 3.0 mph SW4.8 kmh SW 5.0 mph8.0 kmh 30.37 in1028.4 mb 0.00 in0.0 mm 0.00 in0.0 mm 0.00 in0.0 mm
10:40 AM 0.0°F-17.8°C -5.2°F-20.7°C 78% 2.0 mph SW3.2 kmh SW -- 30.37 in1028.4 mb 0.00 in0.0 mm 0.00 in0.0 mm 0.00 in0.0 mm
10:45 AM 0.4°F-17.6°C -5.1°F-20.6°C 77% Calm Calm -- 30.37 in1028.4 mb 0.00 in0.0 mm 0.00 in0.0 mm 0.00 in0.0 mm
10:50 AM 0.7°F-17.4°C -4.8°F-20.4°C 77% 3.0 mph SW4.8 kmh SW -- 30.37 in1028.4 mb 0.00 in0.0 mm 0.00 in0.0 mm 0.00 in0.0 mm
10:55 AM 1.1°F-17.2°C -4.4°F-20.2°C 77% 2.0 mph SW3.2 kmh SW -- 30.37 in1028.4 mb 0.00 in0.0 mm 0.00 in0.0 mm 0.00 in0.0 mm
11:00 AM 1.5°F-16.9°C -4.3°F-20.2°C 76% 3.0 mph SW4.8 kmh SW -- 30.37 in1028.4 mb 0.00 in0.0 mm 0.00 in0.0 mm 0.00 in0.0 mm
11:05 AM 1.8°F-16.8°C -4.3°F-20.2°C 75% 3.0 mph SW4.8 kmh SW -- 30.37 in1028.4 mb 0.00 in0.0 mm 0.00 in0.0 mm 0.00 in0.0 mm
11:10 AM 2.2°F-16.6°C -3.9°F-19.9°C 75% 3.0 mph S4.8 kmh S -- 30.38 in1028.8 mb 0.00 in0.0 mm 0.00 in0.0 mm 0.00 in0.0 mm
11:15 AM 2.6°F-16.3°C -3.5°F-19.7°C 75% 2.0 mph S3.2 kmh S -- 30.38 in1028.8 mb 0.00 in0.0 mm 0.00 in0.0 mm 0.00 in0.0 mm
11:20 AM 2.8°F-16.2°C -3.6°F-19.8°C 74% 2.0 mph S3.2 kmh S 5.0 mph8.0 kmh 30.37 in1028.4 mb 0.00 in0.0 mm 0.00 in0.0 mm 0.00 in0.0 mm
11:25 AM 3.2°F-16.0°C -3.2°F-19.6°C 74% 3.0 mph S4.8 kmh S 5.0 mph8.0 kmh 30.36 in1028.1 mb 0.00 in0.0 mm 0.00 in0.0 mm 0.00 in0.0 mm
11:30 AM 3.6°F-15.8°C -2.8°F-19.3°C 74% 2.0 mph S3.2 kmh S -- 30.36 in1028.1 mb 0.00 in0.0 mm 0.00 in0.0 mm 0.00 in0.0 mm
11:35 AM 4.0°F-15.6°C -2.7°F-19.3°C 73% 3.0 mph S4.8 kmh S -- 30.36 in1028.1 mb 0.00 in0.0 mm 0.00 in0.0 mm 0.00 in0.0 mm
11:40 AM 4.3°F-15.4°C -2.4°F-19.1°C 73% 3.0 mph S4.8 kmh S -- 30.36 in1028.1 mb 0.00 in0.0 mm 0.00 in0.0 mm 0.00 in0.0 mm
11:45 AM 4.6°F-15.2°C -2.4°F-19.1°C 72% 3.0 mph S4.8 kmh S -- 30.36 in1028.1 mb 0.00 in0.0 mm 0.00 in0.0 mm 0.00 in0.0 mm
11:50 AM 5.0°F-15.0°C 0.5°F-17.5°C 81% 4.0 mph S6.4 kmh S -- 30.36 in1028.1 mb 0.00 in0.0 mm 0.00 in0.0 mm 0.00 in0.0 mm
11:55 AM 5.3°F-14.8°C -2.0°F-18.9°C 71% 4.0 mph SSW6.4 kmh SSW -- 30.37 in1028.4 mb 0.00 in0.0 mm 0.00 in0.0 mm 0.00 in0.0 mm
12:00 PM 5.5°F-14.7°C -1.8°F-18.8°C 71% 2.0 mph SSW3.2 kmh SSW -- 30.37 in1028.4 mb 0.00 in0.0 mm 0.00 in0.0 mm 0.00 in0.0 mm
12:05 PM 5.8°F-14.6°C -1.8°F-18.8°C 70% 4.0 mph SW6.4 kmh SW -- 30.37 in1028.4 mb 0.00 in0.0 mm 0.00 in0.0 mm 0.00 in0.0 mm
12:10 PM 5.9°F-14.5°C -1.7°F-18.7°C 70% 5.0 mph SW8.0 kmh SW 6.0 mph9.7 kmh 30.37 in1028.4 mb 0.00 in0.0 mm 0.00 in0.0 mm 0.00 in0.0 mm
12:15 PM 6.2°F-14.3°C -1.8°F-18.8°C 69% 4.0 mph SW6.4 kmh SW 6.0 mph9.7 kmh 30.37 in1028.4 mb 0.00 in0.0 mm 0.00 in0.0 mm 0.00 in0.0 mm
12:20 PM 6.5°F-14.2°C -1.2°F-18.4°C 70% 5.0 mph SW8.0 kmh SW -- 30.37 in1028.4 mb 0.00 in0.0 mm 0.00 in0.0 mm 0.00 in0.0 mm
12:25 PM 6.8°F-14.0°C -0.9°F-18.3°C 70% 2.0 mph SW3.2 kmh SW -- 30.37 in1028.4 mb 0.00 in0.0 mm 0.00 in0.0 mm 0.00 in0.0 mm
12:30 PM 6.9°F-13.9°C -1.1°F-18.4°C 69% 6.0 mph SW9.7 kmh SW -- 30.37 in1028.4 mb 0.00 in0.0 mm 0.00 in0.0 mm 0.00 in0.0 mm
12:35 PM 7.0°F-13.9°C -1.0°F-18.3°C 69% 2.0 mph SSW3.2 kmh SSW -- 30.36 in1028.1 mb 0.00 in0.0 mm 0.00 in0.0 mm 0.00 in0.0 mm
12:40 PM 7.4°F-13.7°C -0.6°F-18.1°C 69% 4.0 mph S6.4 kmh S -- 30.36 in1028.1 mb 0.00 in0.0 mm 0.00 in0.0 mm 0.00 in0.0 mm
12:45 PM 7.8°F-13.4°C -0.5°F-18.1°C 68% 2.0 mph SSW3.2 kmh SSW -- 30.36 in1028.1 mb 0.00 in0.0 mm 0.00 in0.0 mm 0.00 in0.0 mm
12:50 PM 8.7°F-12.9°C 0.6°F-17.4°C 69% 4.0 mph SSW6.4 kmh SSW -- 30.35 in1027.8 mb 0.00 in0.0 mm 0.00 in0.0 mm 0.00 in0.0 mm
12:55 PM 9.0°F-12.8°C 0.3°F-17.6°C 67% 4.0 mph S6.4 kmh S -- 30.35 in1027.8 mb 0.00 in0.0 mm 0.00 in0.0 mm 0.00 in0.0 mm
01:00 PM 9.0°F-12.8°C 0.0°F-17.8°C 66% 5.0 mph SSW8.0 kmh SSW 7.0 mph11.3 kmh 30.34 in1027.4 mb 0.00 in0.0 mm 0.00 in0.0 mm 0.00 in0.0 mm
01:05 PM 9.0°F-12.8°C 0.0°F-17.8°C 66% 4.0 mph SSW6.4 kmh SSW 7.0 mph11.3 kmh 30.34 in1027.4 mb 0.00 in0.0 mm 0.00 in0.0 mm 0.00 in0.0 mm
01:10 PM 8.9°F-12.8°C -0.1°F-17.8°C 66% 2.0 mph SW3.2 kmh SW -- 30.33 in1027.1 mb 0.00 in0.0 mm 0.00 in0.0 mm 0.00 in0.0 mm
01:15 PM 8.9°F-12.8°C -0.1°F-17.8°C 66% 4.0 mph SW6.4 kmh SW -- 30.33 in1027.1 mb 0.00 in0.0 mm 0.00 in0.0 mm 0.00 in0.0 mm
01:20 PM 8.9°F-12.8°C 0.2°F-17.7°C 67% 7.0 mph SW11.3 kmh SW -- 30.32 in1026.8 mb 0.00 in0.0 mm 0.00 in0.0 mm 0.00 in0.0 mm
01:25 PM 9.0°F-12.8°C 0.3°F-17.6°C 67% 4.0 mph SW6.4 kmh SW -- 30.32 in1026.8 mb 0.00 in0.0 mm 0.00 in0.0 mm 0.00 in0.0 mm
01:30 PM 8.8°F-12.9°C -0.2°F-17.9°C 66% 5.0 mph S8.0 kmh S -- 30.31 in1026.4 mb 0.00 in0.0 mm 0.00 in0.0 mm 0.00 in0.0 mm
01:35 PM 8.8°F-12.9°C 0.1°F-17.7°C 67% 4.0 mph SSW6.4 kmh SSW -- 30.31 in1026.4 mb 0.00 in0.0 mm 0.00 in0.0 mm 0.00 in0.0 mm
01:40 PM 8.8°F-12.9°C 0.1°F-17.7°C 67% 4.0 mph S6.4 kmh S -- 30.31 in1026.4 mb 0.00 in0.0 mm 0.00 in0.0 mm 0.00 in0.0 mm
01:45 PM 8.7°F-12.9°C 0.0°F-17.8°C 67% 5.0 mph SW8.0 kmh SW -- 30.31 in1026.4 mb 0.00 in0.0 mm 0.00 in0.0 mm 0.00 in0.0 mm
01:50 PM 8.8°F-12.9°C 0.1°F-17.7°C 67% 4.0 mph SW6.4 kmh SW 8.0 mph12.9 kmh 30.31 in1026.4 mb 0.00 in0.0 mm 0.00 in0.0 mm 0.00 in0.0 mm
01:55 PM 8.7°F-12.9°C 0.0°F-17.8°C 67% 4.0 mph SW6.4 kmh SW 8.0 mph12.9 kmh 30.31 in1026.4 mb 0.00 in0.0 mm 0.00 in0.0 mm 0.00 in0.0 mm
02:00 PM 8.7°F-12.9°C 0.0°F-17.8°C 67% 8.0 mph SW12.9 kmh SW -- 30.31 in1026.4 mb 0.00 in0.0 mm 0.00 in0.0 mm 0.00 in0.0 mm
02:05 PM 8.9°F-12.8°C 0.5°F-17.5°C 68% 5.0 mph SW8.0 kmh SW -- 30.31 in1026.4 mb 0.00 in0.0 mm 0.00 in0.0 mm 0.00 in0.0 mm
02:10 PM 9.0°F-12.8°C 0.6°F-17.4°C 68% 4.0 mph SW6.4 kmh SW -- 30.31 in1026.4 mb 0.00 in0.0 mm 0.00 in0.0 mm 0.00 in0.0 mm
02:15 PM 9.1°F-12.7°C 0.4°F-17.6°C 67% 5.0 mph SW8.0 kmh SW -- 30.31 in1026.4 mb 0.00 in0.0 mm 0.00 in0.0 mm 0.00 in0.0 mm
02:20 PM 9.3°F-12.6°C 0.6°F-17.4°C 67% 3.0 mph SW4.8 kmh SW -- 30.31 in1026.4 mb 0.00 in0.0 mm 0.00 in0.0 mm 0.00 in0.0 mm
02:25 PM 9.5°F-12.5°C 1.1°F-17.2°C 68% 5.0 mph SW8.0 kmh SW -- 30.31 in1026.4 mb 0.00 in0.0 mm 0.00 in0.0 mm 0.00 in0.0 mm
02:30 PM 9.8°F-12.3°C 1.4°F-17.0°C 68% 4.0 mph SW6.4 kmh SW -- 30.30 in1026.1 mb 0.00 in0.0 mm 0.00 in0.0 mm 0.00 in0.0 mm
02:35 PM 9.9°F-12.3°C 1.5°F-16.9°C 68% 4.0 mph SW6.4 kmh SW -- 30.30 in1026.1 mb 0.00 in0.0 mm 0.00 in0.0 mm 0.00 in0.0 mm
02:40 PM 9.9°F-12.3°C 1.5°F-16.9°C 68% 3.0 mph SW4.8 kmh SW 7.0 mph11.3 kmh 30.30 in1026.1 mb 0.00 in0.0 mm 0.00 in0.0 mm 0.00 in0.0 mm
02:45 PM 10.3°F-12.1°C 1.9°F-16.7°C 68% 4.0 mph SW6.4 kmh SW 7.0 mph11.3 kmh 30.30 in1026.1 mb 0.00 in0.0 mm 0.00 in0.0 mm 0.00 in0.0 mm
02:50 PM 10.3°F-12.1°C 1.6°F-16.9°C 67% 4.0 mph SW6.4 kmh SW -- 30.29 in1025.7 mb 0.00 in0.0 mm 0.00 in0.0 mm 0.00 in0.0 mm
02:55 PM 10.5°F-11.9°C 2.1°F-16.6°C 68% 3.0 mph SW4.8 kmh SW -- 30.29 in1025.7 mb 0.00 in0.0 mm 0.00 in0.0 mm 0.00 in0.0 mm
03:00 PM 10.8°F-11.8°C 2.0°F-16.7°C 67% 4.0 mph SSW6.4 kmh SSW -- 30.29 in1025.7 mb 0.00 in0.0 mm 0.00 in0.0 mm 0.00 in0.0 mm
03:05 PM 10.9°F-11.7°C 2.1°F-16.6°C 67% 4.0 mph SSW6.4 kmh SSW -- 30.29 in1025.7 mb 0.00 in0.0 mm 0.00 in0.0 mm 0.00 in0.0 mm
03:10 PM 11.1°F-11.6°C 2.0°F-16.7°C 66% 5.0 mph SSW8.0 kmh SSW -- 30.29 in1025.7 mb 0.00 in0.0 mm 0.00 in0.0 mm 0.00 in0.0 mm
03:15 PM 11.1°F-11.6°C 2.0°F-16.7°C 66% 5.0 mph SSW8.0 kmh SSW -- 30.28 in1025.4 mb 0.00 in0.0 mm 0.00 in0.0 mm 0.00 in0.0 mm
03:20 PM 11.0°F-11.7°C 2.2°F-16.6°C 67% 4.0 mph SSW6.4 kmh SSW -- 30.28 in1025.4 mb 0.00 in0.0 mm 0.00 in0.0 mm 0.00 in0.0 mm
03:25 PM 11.0°F-11.7°C 2.5°F-16.4°C 68% 5.0 mph SSW8.0 kmh SSW -- 30.28 in1025.4 mb 0.00 in0.0 mm 0.00 in0.0 mm 0.00 in0.0 mm
03:30 PM 11.0°F-11.7°C 3.5°F-15.8°C 71% 4.0 mph SW6.4 kmh SW 7.0 mph11.3 kmh 30.28 in1025.4 mb 0.00 in0.0 mm 0.00 in0.0 mm 0.00 in0.0 mm
03:35 PM 10.8°F-11.8°C 4.2°F-15.4°C 74% 5.0 mph S8.0 kmh S 7.0 mph11.3 kmh 30.28 in1025.4 mb 0.00 in0.0 mm 0.00 in0.0 mm 0.00 in0.0 mm
03:40 PM 10.7°F-11.8°C 4.4°F-15.3°C 75% 5.0 mph SW8.0 kmh SW -- 30.28 in1025.4 mb 0.00 in0.0 mm 0.00 in0.0 mm 0.00 in0.0 mm
03:45 PM 10.5°F-11.9°C 4.5°F-15.3°C 76% 4.0 mph S6.4 kmh S -- 30.28 in1025.4 mb 0.00 in0.0 mm 0.00 in0.0 mm 0.00 in0.0 mm
03:50 PM 10.4°F-12.0°C 4.9°F-15.1°C 78% 1.0 mph S1.6 kmh S -- 30.28 in1025.4 mb 0.00 in0.0 mm 0.00 in0.0 mm 0.00 in0.0 mm
03:55 PM 10.3°F-12.1°C 4.8°F-15.1°C 78% 3.0 mph S4.8 kmh S -- 30.27 in1025.1 mb 0.00 in0.0 mm 0.00 in0.0 mm 0.00 in0.0 mm
04:00 PM 10.3°F-12.1°C 5.1°F-14.9°C 79% 2.0 mph SSE3.2 kmh SSE -- 30.27 in1025.1 mb 0.00 in0.0 mm 0.00 in0.0 mm 0.00 in0.0 mm
04:05 PM 10.2°F-12.1°C 5.3°F-14.8°C 80% 6.0 mph S9.7 kmh S -- 30.28 in1025.4 mb 0.00 in0.0 mm 0.00 in0.0 mm 0.00 in0.0 mm
04:10 PM 10.0°F-12.2°C 5.1°F-14.9°C 80% 4.0 mph SSW6.4 kmh SSW -- 30.28 in1025.4 mb 0.00 in0.0 mm 0.00 in0.0 mm 0.00 in0.0 mm
04:15 PM 9.8°F-12.3°C 4.9°F-15.1°C 80% 3.0 mph SW4.8 kmh SW -- 30.28 in1025.4 mb 0.00 in0.0 mm 0.00 in0.0 mm 0.00 in0.0 mm
04:20 PM 9.6°F-12.4°C 4.7°F-15.2°C 80% 6.0 mph SSW9.7 kmh SSW 8.0 mph12.9 kmh 30.28 in1025.4 mb 0.00 in0.0 mm 0.00 in0.0 mm 0.00 in0.0 mm
04:25 PM 9.5°F-12.5°C 4.9°F-15.1°C 81% 3.0 mph SSW4.8 kmh SSW 8.0 mph12.9 kmh 30.28 in1025.4 mb 0.00 in0.0 mm 0.00 in0.0 mm 0.00 in0.0 mm
04:30 PM 9.4°F-12.6°C 4.8°F-15.1°C 81% 3.0 mph SSW4.8 kmh SSW -- 30.28 in1025.4 mb 0.00 in0.0 mm 0.00 in0.0 mm 0.00 in0.0 mm
04:35 PM 9.4°F-12.6°C 4.8°F-15.1°C 81% 3.0 mph S4.8 kmh S -- 30.28 in1025.4 mb 0.00 in0.0 mm 0.00 in0.0 mm 0.00 in0.0 mm
04:40 PM 9.4°F-12.6°C 5.0°F-15.0°C 82% 4.0 mph SW6.4 kmh SW -- 30.28 in1025.4 mb 0.00 in0.0 mm 0.00 in0.0 mm 0.00 in0.0 mm
04:45 PM 9.4°F-12.6°C 5.0°F-15.0°C 82% 2.0 mph SW3.2 kmh SW -- 30.28 in1025.4 mb 0.00 in0.0 mm 0.00 in0.0 mm 0.00 in0.0 mm
04:50 PM 8.4°F-13.1°C 4.8°F-15.1°C 85% 5.0 mph WSW8.0 kmh WSW -- 30.28 in1025.4 mb 0.00 in0.0 mm 0.00 in0.0 mm 0.00 in0.0 mm
04:55 PM 8.3°F-13.2°C 4.7°F-15.2°C 85% 5.0 mph SW8.0 kmh SW -- 30.28 in1025.4 mb 0.00 in0.0 mm 0.00 in0.0 mm 0.00 in0.0 mm
05:00 PM 8.3°F-13.2°C 4.7°F-15.2°C 85% 5.0 mph SW8.0 kmh SW -- 30.28 in1025.4 mb 0.00 in0.0 mm 0.00 in0.0 mm 0.00 in0.0 mm
05:05 PM 8.3°F-13.2°C 4.7°F-15.2°C 85% 6.0 mph SW9.7 kmh SW -- 30.28 in1025.4 mb 0.00 in0.0 mm 0.00 in0.0 mm 0.00 in0.0 mm
05:10 PM 8.3°F-13.2°C 5.0°F-15.0°C 86% 6.0 mph SW9.7 kmh SW 8.0 mph12.9 kmh 30.27 in1025.1 mb 0.00 in0.0 mm 0.00 in0.0 mm 0.00 in0.0 mm
05:15 PM 8.3°F-13.2°C 5.0°F-15.0°C 86% 3.0 mph SSW4.8 kmh SSW 8.0 mph12.9 kmh 30.27 in1025.1 mb 0.00 in0.0 mm 0.00 in0.0 mm 0.00 in0.0 mm
05:20 PM 8.4°F-13.1°C 5.1°F-14.9°C 86% 4.0 mph WSW6.4 kmh WSW -- 30.27 in1025.1 mb 0.00 in0.0 mm 0.00 in0.0 mm 0.00 in0.0 mm
05:25 PM 8.4°F-13.1°C 5.3°F-14.8°C 87% 3.0 mph SW4.8 kmh SW -- 30.27 in1025.1 mb 0.00 in0.0 mm 0.00 in0.0 mm 0.00 in0.0 mm
05:30 PM 8.5°F-13.1°C 5.4°F-14.8°C 87% 5.0 mph SW8.0 kmh SW -- 30.28 in1025.4 mb 0.00 in0.0 mm 0.00 in0.0 mm 0.00 in0.0 mm
05:35 PM 8.4°F-13.1°C 5.3°F-14.8°C 87% 6.0 mph SW9.7 kmh SW -- 30.28 in1025.4 mb 0.00 in0.0 mm 0.00 in0.0 mm 0.00 in0.0 mm
05:40 PM 8.4°F-13.1°C 5.3°F-14.8°C 87% 5.0 mph SW8.0 kmh SW -- 30.28 in1025.4 mb 0.00 in0.0 mm 0.00 in0.0 mm 0.00 in0.0 mm
05:45 PM 9.4°F-12.6°C 5.6°F-14.7°C 84% 3.0 mph SSW4.8 kmh SSW -- 30.28 in1025.4 mb 0.00 in0.0 mm 0.00 in0.0 mm 0.00 in0.0 mm
05:50 PM 9.4°F-12.6°C 5.6°F-14.7°C 84% 3.0 mph SSW4.8 kmh SSW -- 30.27 in1025.1 mb 0.00 in0.0 mm 0.00 in0.0 mm 0.00 in0.0 mm
05:55 PM 9.4°F-12.6°C 5.6°F-14.7°C 84% 2.0 mph SSW3.2 kmh SSW -- 30.27 in1025.1 mb 0.00 in0.0 mm 0.00 in0.0 mm 0.00 in0.0 mm
06:00 PM 9.4°F-12.6°C 5.6°F-14.7°C 84% 5.0 mph SSW8.0 kmh SSW 6.0 mph9.7 kmh 30.27 in1025.1 mb 0.00 in0.0 mm 0.00 in0.0 mm 0.00 in0.0 mm
06:05 PM 9.4°F-12.6°C 5.6°F-14.7°C 84% 1.0 mph SSW1.6 kmh SSW 6.0 mph9.7 kmh 30.27 in1025.1 mb 0.00 in0.0 mm 0.00 in0.0 mm 0.00 in0.0 mm
06:10 PM 9.5°F-12.5°C 5.7°F-14.6°C 84% 3.0 mph SSW4.8 kmh SSW -- 30.27 in1025.1 mb 0.00 in0.0 mm 0.00 in0.0 mm 0.00 in0.0 mm
06:15 PM 9.5°F-12.5°C 5.7°F-14.6°C 84% 2.0 mph SSW3.2 kmh SSW -- 30.27 in1025.1 mb 0.00 in0.0 mm 0.00 in0.0 mm 0.00 in0.0 mm
06:20 PM 9.4°F-12.6°C 5.6°F-14.7°C 84% 6.0 mph SSW9.7 kmh SSW -- 30.27 in1025.1 mb 0.00 in0.0 mm 0.00 in0.0 mm 0.00 in0.0 mm
06:25 PM 9.4°F-12.6°C 5.6°F-14.7°C 84% 2.0 mph SSW3.2 kmh SSW -- 30.27 in1025.1 mb 0.00 in0.0 mm 0.00 in0.0 mm 0.00 in0.0 mm
06:30 PM 9.4°F-12.6°C 5.6°F-14.7°C 84% 2.0 mph SSW3.2 kmh SSW -- 30.27 in1025.1 mb 0.00 in0.0 mm 0.00 in0.0 mm 0.00 in0.0 mm
06:35 PM 9.4°F-12.6°C 5.8°F-14.6°C 85% 2.0 mph SSW3.2 kmh SSW -- 30.27 in1025.1 mb 0.00 in0.0 mm 0.00 in0.0 mm 0.00 in0.0 mm
06:40 PM 9.4°F-12.6°C 5.8°F-14.6°C 85% 2.0 mph SSW3.2 kmh SSW -- 30.27 in1025.1 mb 0.00 in0.0 mm 0.00 in0.0 mm 0.00 in0.0 mm
06:45 PM 9.4°F-12.6°C 5.8°F-14.6°C 85% 3.0 mph SSW4.8 kmh SSW -- 30.28 in1025.4 mb 0.00 in0.0 mm 0.00 in0.0 mm 0.00 in0.0 mm
06:50 PM 9.4°F-12.6°C 5.8°F-14.6°C 85% 4.0 mph SSW6.4 kmh SSW 6.0 mph9.7 kmh 30.28 in1025.4 mb 0.00 in0.0 mm 0.00 in0.0 mm 0.00 in0.0 mm
06:55 PM 9.4°F-12.6°C 5.6°F-14.7°C 84% 3.0 mph SSW4.8 kmh SSW 6.0 mph9.7 kmh 30.28 in1025.4 mb 0.00 in0.0 mm 0.00 in0.0 mm 0.00 in0.0 mm
07:00 PM 9.4°F-12.6°C 5.6°F-14.7°C 84% 5.0 mph SSW8.0 kmh SSW -- 30.28 in1025.4 mb 0.00 in0.0 mm 0.00 in0.0 mm 0.00 in0.0 mm
07:05 PM 9.4°F-12.6°C 5.6°F-14.7°C 84% 3.0 mph SSW4.8 kmh SSW -- 30.28 in1025.4 mb 0.00 in0.0 mm 0.00 in0.0 mm 0.00 in0.0 mm
07:10 PM 9.4°F-12.6°C 5.8°F-14.6°C 85% 3.0 mph SSW4.8 kmh SSW -- 30.29 in1025.7 mb 0.00 in0.0 mm 0.00 in0.0 mm 0.00 in0.0 mm
07:15 PM 9.4°F-12.6°C 5.8°F-14.6°C 85% 5.0 mph SSW8.0 kmh SSW -- 30.29 in1025.7 mb 0.00 in0.0 mm 0.00 in0.0 mm 0.00 in0.0 mm
07:20 PM 9.4°F-12.6°C 5.6°F-14.7°C 84% 5.0 mph SW8.0 kmh SW -- 30.29 in1025.7 mb 0.00 in0.0 mm 0.00 in0.0 mm 0.00 in0.0 mm
07:25 PM 9.4°F-12.6°C 5.8°F-14.6°C 85% 3.0 mph SW4.8 kmh SW -- 30.29 in1025.7 mb 0.00 in0.0 mm 0.00 in0.0 mm 0.00 in0.0 mm
07:30 PM 9.4°F-12.6°C 5.8°F-14.6°C 85% 2.0 mph SW3.2 kmh SW -- 30.29 in1025.7 mb 0.00 in0.0 mm 0.00 in0.0 mm 0.00 in0.0 mm
07:35 PM 9.4°F-12.6°C 5.8°F-14.6°C 85% 4.0 mph SW6.4 kmh SW -- 30.29 in1025.7 mb 0.00 in0.0 mm 0.00 in0.0 mm 0.00 in0.0 mm
07:40 PM 9.4°F-12.6°C 5.8°F-14.6°C 85% 2.0 mph SW3.2 kmh SW 5.0 mph8.0 kmh 30.29 in1025.7 mb 0.00 in0.0 mm 0.00 in0.0 mm 0.00 in0.0 mm
07:45 PM 9.4°F-12.6°C 5.8°F-14.6°C 85% 1.0 mph SW1.6 kmh SW 5.0 mph8.0 kmh 30.29 in1025.7 mb 0.00 in0.0 mm 0.00 in0.0 mm 0.00 in0.0 mm
07:50 PM 9.4°F-12.6°C 5.8°F-14.6°C 85% 2.0 mph SW3.2 kmh SW -- 30.29 in1025.7 mb 0.00 in0.0 mm 0.00 in0.0 mm 0.00 in0.0 mm
07:55 PM 9.5°F-12.5°C 5.9°F-14.5°C 85% 3.0 mph WSW4.8 kmh WSW -- 30.29 in1025.7 mb 0.00 in0.0 mm 0.00 in0.0 mm 0.00 in0.0 mm
08:00 PM 9.5°F-12.5°C 5.9°F-14.5°C 85% 3.0 mph SW4.8 kmh SW -- 30.29 in1025.7 mb 0.00 in0.0 mm 0.00 in0.0 mm 0.00 in0.0 mm
08:05 PM 9.5°F-12.5°C 5.9°F-14.5°C 85% 3.0 mph SW4.8 kmh SW -- 30.30 in1026.1 mb 0.00 in0.0 mm 0.00 in0.0 mm 0.00 in0.0 mm
08:10 PM 9.5°F-12.5°C 5.7°F-14.6°C 84% 4.0 mph SW6.4 kmh SW -- 30.30 in1026.1 mb 0.00 in0.0 mm 0.00 in0.0 mm 0.00 in0.0 mm
08:15 PM 9.5°F-12.5°C 5.7°F-14.6°C 84% 2.0 mph SW3.2 kmh SW -- 30.30 in1026.1 mb 0.00 in0.0 mm 0.00 in0.0 mm 0.00 in0.0 mm
08:20 PM 9.5°F-12.5°C 5.9°F-14.5°C 85% 2.0 mph WSW3.2 kmh WSW -- 30.30 in1026.1 mb 0.00 in0.0 mm 0.00 in0.0 mm 0.00 in0.0 mm
08:25 PM 9.6°F-12.4°C 5.8°F-14.6°C 84% 2.0 mph WSW3.2 kmh WSW -- 30.30 in1026.1 mb 0.00 in0.0 mm 0.00 in0.0 mm 0.00 in0.0 mm
08:30 PM 9.6°F-12.4°C 5.8°F-14.6°C 84% 7.0 mph WSW11.3 kmh WSW 7.0 mph11.3 kmh 30.30 in1026.1 mb 0.00 in0.0 mm 0.00 in0.0 mm 0.00 in0.0 mm
08:35 PM 9.6°F-12.4°C 5.8°F-14.6°C 84% 3.0 mph SW4.8 kmh SW 7.0 mph11.3 kmh 30.30 in1026.1 mb 0.00 in0.0 mm 0.00 in0.0 mm 0.00 in0.0 mm
08:40 PM 9.6°F-12.4°C 5.8°F-14.6°C 84% 3.0 mph WSW4.8 kmh WSW -- 30.30 in1026.1 mb 0.00 in0.0 mm 0.00 in0.0 mm 0.00 in0.0 mm
08:45 PM 9.6°F-12.4°C 5.8°F-14.6°C 84% 4.0 mph WSW6.4 kmh WSW -- 30.30 in1026.1 mb 0.00 in0.0 mm 0.00 in0.0 mm 0.00 in0.0 mm
08:50 PM 9.5°F-12.5°C 5.7°F-14.6°C 84% 2.0 mph WSW3.2 kmh WSW -- 30.30 in1026.1 mb 0.00 in0.0 mm 0.00 in0.0 mm 0.00 in0.0 mm
08:55 PM 9.5°F-12.5°C 5.7°F-14.6°C 84% 4.0 mph WSW6.4 kmh WSW -- 30.31 in1026.4 mb 0.00 in0.0 mm 0.00 in0.0 mm 0.00 in0.0 mm
09:00 PM 9.5°F-12.5°C 5.7°F-14.6°C 84% 4.0 mph WSW6.4 kmh WSW -- 30.31 in1026.4 mb 0.00 in0.0 mm 0.00 in0.0 mm 0.00 in0.0 mm
09:05 PM 9.5°F-12.5°C 5.7°F-14.6°C 84% 2.0 mph WSW3.2 kmh WSW -- 30.31 in1026.4 mb 0.00 in0.0 mm 0.00 in0.0 mm 0.00 in0.0 mm
09:10 PM 9.5°F-12.5°C 5.7°F-14.6°C 84% 4.0 mph WSW6.4 kmh WSW -- 30.31 in1026.4 mb 0.00 in0.0 mm 0.00 in0.0 mm 0.00 in0.0 mm
09:15 PM 9.5°F-12.5°C 5.7°F-14.6°C 84% 3.0 mph WSW4.8 kmh WSW -- 30.31 in1026.4 mb 0.00 in0.0 mm 0.00 in0.0 mm 0.00 in0.0 mm
09:20 PM 9.6°F-12.4°C 5.8°F-14.6°C 84% 3.0 mph WSW4.8 kmh WSW 8.0 mph12.9 kmh 30.31 in1026.4 mb 0.00 in0.0 mm 0.00 in0.0 mm 0.00 in0.0 mm
09:25 PM 9.6°F-12.4°C 5.8°F-14.6°C 84% 6.0 mph WSW9.7 kmh WSW 8.0 mph12.9 kmh 30.31 in1026.4 mb 0.00 in0.0 mm 0.00 in0.0 mm 0.00 in0.0 mm
09:30 PM 9.6°F-12.4°C 5.8°F-14.6°C 84% 2.0 mph WSW3.2 kmh WSW -- 30.32 in1026.8 mb 0.00 in0.0 mm 0.00 in0.0 mm 0.00 in0.0 mm
09:35 PM 9.6°F-12.4°C 5.8°F-14.6°C 84% 4.0 mph WSW6.4 kmh WSW -- 30.32 in1026.8 mb 0.00 in0.0 mm 0.00 in0.0 mm 0.00 in0.0 mm
09:40 PM 9.6°F-12.4°C 5.8°F-14.6°C 84% 3.0 mph WSW4.8 kmh WSW -- 30.32 in1026.8 mb 0.00 in0.0 mm 0.00 in0.0 mm 0.00 in0.0 mm
09:45 PM 9.6°F-12.4°C 5.8°F-14.6°C 84% 2.0 mph WSW3.2 kmh WSW -- 30.32 in1026.8 mb 0.00 in0.0 mm 0.00 in0.0 mm 0.00 in0.0 mm
09:50 PM 9.7°F-12.4°C 5.9°F-14.5°C 84% 6.0 mph WSW9.7 kmh WSW -- 30.32 in1026.8 mb 0.00 in0.0 mm 0.00 in0.0 mm 0.00 in0.0 mm
09:55 PM 9.7°F-12.4°C 5.9°F-14.5°C 84% 6.0 mph WSW9.7 kmh WSW -- 30.32 in1026.8 mb 0.00 in0.0 mm 0.00 in0.0 mm 0.00 in0.0 mm
10:00 PM 9.8°F-12.3°C 6.0°F-14.4°C 84% 2.0 mph WSW3.2 kmh WSW -- 30.32 in1026.8 mb 0.00 in0.0 mm 0.00 in0.0 mm 0.00 in0.0 mm
10:05 PM 9.7°F-12.4°C 5.9°F-14.5°C 84% 3.0 mph WSW4.8 kmh WSW -- 30.32 in1026.8 mb 0.00 in0.0 mm 0.00 in0.0 mm 0.00 in0.0 mm
10:10 PM 9.8°F-12.3°C 6.0°F-14.4°C 84% 2.0 mph W3.2 kmh W 6.0 mph9.7 kmh 30.32 in1026.8 mb 0.00 in0.0 mm 0.00 in0.0 mm 0.00 in0.0 mm
10:15 PM 9.8°F-12.3°C 6.0°F-14.4°C 84% 4.0 mph WSW6.4 kmh WSW 6.0 mph9.7 kmh 30.32 in1026.8 mb 0.00 in0.0 mm 0.00 in0.0 mm 0.00 in0.0 mm
10:20 PM 9.8°F-12.3°C 6.0°F-14.4°C 84% 3.0 mph WSW4.8 kmh WSW -- 30.32 in1026.8 mb 0.00 in0.0 mm 0.00 in0.0 mm 0.00 in0.0 mm
10:25 PM 9.8°F-12.3°C 6.0°F-14.4°C 84% 3.0 mph WSW4.8 kmh WSW -- 30.32 in1026.8 mb 0.00 in0.0 mm 0.00 in0.0 mm 0.00 in0.0 mm
10:30 PM 9.8°F-12.3°C 6.0°F-14.4°C 84% 5.0 mph WSW8.0 kmh WSW -- 30.33 in1027.1 mb 0.00 in0.0 mm 0.00 in0.0 mm 0.00 in0.0 mm
10:35 PM 9.9°F-12.3°C 6.1°F-14.4°C 84% 3.0 mph SW4.8 kmh SW -- 30.33 in1027.1 mb 0.00 in0.0 mm 0.00 in0.0 mm 0.00 in0.0 mm
10:40 PM 9.9°F-12.3°C 6.1°F-14.4°C 84% 5.0 mph WSW8.0 kmh WSW -- 30.33 in1027.1 mb 0.00 in0.0 mm 0.00 in0.0 mm 0.00 in0.0 mm
10:45 PM 9.9°F-12.3°C 6.1°F-14.4°C 84% 3.0 mph W4.8 kmh W -- 30.33 in1027.1 mb 0.00 in0.0 mm 0.00 in0.0 mm 0.00 in0.0 mm
10:50 PM 9.9°F-12.3°C 6.1°F-14.4°C 84% 3.0 mph WSW4.8 kmh WSW -- 30.33 in1027.1 mb 0.00 in0.0 mm 0.00 in0.0 mm 0.00 in0.0 mm
10:55 PM 9.9°F-12.3°C 6.1°F-14.4°C 84% 2.0 mph WSW3.2 kmh WSW -- 30.33 in1027.1 mb 0.00 in0.0 mm 0.00 in0.0 mm 0.00 in0.0 mm
11:00 PM 9.9°F-12.3°C 6.1°F-14.4°C 84% 2.0 mph WSW3.2 kmh WSW 6.0 mph9.7 kmh 30.33 in1027.1 mb 0.00 in0.0 mm 0.00 in0.0 mm 0.00 in0.0 mm
11:05 PM 9.9°F-12.3°C 6.1°F-14.4°C 84% 2.0 mph SW3.2 kmh SW 6.0 mph9.7 kmh 30.34 in1027.4 mb 0.00 in0.0 mm 0.00 in0.0 mm 0.00 in0.0 mm
11:10 PM 9.9°F-12.3°C 6.1°F-14.4°C 84% 3.0 mph SW4.8 kmh SW -- 30.34 in1027.4 mb 0.00 in0.0 mm 0.00 in0.0 mm 0.00 in0.0 mm
11:15 PM 9.9°F-12.3°C 6.1°F-14.4°C 84% 3.0 mph SW4.8 kmh SW -- 30.34 in1027.4 mb 0.00 in0.0 mm 0.00 in0.0 mm 0.00 in0.0 mm
11:20 PM 9.9°F-12.3°C 6.1°F-14.4°C 84% 4.0 mph SW6.4 kmh SW -- 30.34 in1027.4 mb 0.00 in0.0 mm 0.00 in0.0 mm 0.00 in0.0 mm
11:25 PM 9.9°F-12.3°C 6.1°F-14.4°C 84% 1.0 mph SW1.6 kmh SW -- 30.34 in1027.4 mb 0.00 in0.0 mm 0.00 in0.0 mm 0.00 in0.0 mm
11:30 PM 9.9°F-12.3°C 6.1°F-14.4°C 84% 5.0 mph WSW8.0 kmh WSW -- 30.34 in1027.4 mb 0.00 in0.0 mm 0.00 in0.0 mm 0.00 in0.0 mm
11:35 PM 9.8°F-12.3°C 6.0°F-14.4°C 84% 1.0 mph W1.6 kmh W -- 30.34 in1027.4 mb 0.00 in0.0 mm 0.00 in0.0 mm 0.00 in0.0 mm
11:40 PM 9.9°F-12.3°C 6.1°F-14.4°C 84% 2.0 mph WSW3.2 kmh WSW -- 30.34 in1027.4 mb 0.00 in0.0 mm 0.00 in0.0 mm 0.00 in0.0 mm
11:45 PM 9.8°F-12.3°C 6.0°F-14.4°C 84% 1.0 mph WSW1.6 kmh WSW -- 30.34 in1027.4 mb 0.00 in0.0 mm 0.00 in0.0 mm 0.00 in0.0 mm
11:50 PM 9.9°F-12.3°C 6.1°F-14.4°C 84% 4.0 mph WSW6.4 kmh WSW 6.0 mph9.7 kmh 30.34 in1027.4 mb 0.00 in0.0 mm 0.00 in0.0 mm 0.00 in0.0 mm
11:55 PM 9.9°F-12.3°C 6.1°F-14.4°C 84% 2.0 mph WSW3.2 kmh WSW 6.0 mph9.7 kmh 30.34 in1027.4 mb 0.00 in0.0 mm 0.00 in0.0 mm 0.00 in0.0 mm